Terminal Aerodrome Forecast
Issued by NWS Blacksburg, VA

Home | Current Version | Previous Version | Text Only | Print | Product List | Glossary On
Versions: 1 2 3 4 5 6 7 8 9 10 11 12 13 14 15 16 17 18 19 20 21 22 23 24 25 26 27 28 29 30 31 32 33 34 35 36 37 38 39 40 41 42 43 44 45 46 47 48 49 50
000
FTUS41 KRNK 250604 AAA
TAFLYH
TAF AMD
KLYH 250604Z 2506/2606 27009KT P6SM SCT003 BKN060
      TEMPO 2506/2508 BKN007
     FM251100 27010KT P6SM SCT050 SCT100
     FM251800 26007KT P6SM FEW060
     FM260000 00000KT P6SM SKC=

USA.gov is the U.S. government's official web portal to all federal, state and local government web resources and services.